sensor_id;sensor_type;location;lat;lon;timestamp;temperature;humidity
52889;DHT22;41413;52.770;6.892;2023-01-09T00:02:01;6.90;99.90
52889;DHT22;41413;52.770;6.892;2023-01-09T00:04:28;8.00;99.90
52889;DHT22;41413;52.770;6.892;2023-01-09T00:06:54;6.90;99.90
52889;DHT22;41413;52.770;6.892;2023-01-09T00:09:22;6.90;99.90
52889;DHT22;41413;52.770;6.892;2023-01-09T00:11:50;6.90;99.90
52889;DHT22;41413;52.770;6.892;2023-01-09T00:14:17;6.90;99.90
52889;DHT22;41413;52.770;6.892;2023-01-09T00:16:44;6.90;99.90
52889;DHT22;41413;52.770;6.892;2023-01-09T00:19:11;6.90;99.90
52889;DHT22;41413;52.770;6.892;2023-01-09T00:21:38;6.90;99.90
52889;DHT22;41413;52.770;6.892;2023-01-09T00:24:05;6.90;99.90
52889;DHT22;41413;52.770;6.892;2023-01-09T00:26:32;6.90;99.90
52889;DHT22;41413;52.770;6.892;2023-01-09T00:28:59;6.90;99.90
52889;DHT22;41413;52.770;6.892;2023-01-09T00:31:25;6.90;99.90
52889;DHT22;41413;52.770;6.892;2023-01-09T00:33:59;6.90;99.90
52889;DHT22;41413;52.770;6.892;2023-01-09T00:36:26;6.90;99.90
52889;DHT22;41413;52.770;6.892;2023-01-09T00:38:54;6.90;99.90
52889;DHT22;41413;52.770;6.892;2023-01-09T00:41:43;6.90;99.90
52889;DHT22;41413;52.770;6.892;2023-01-09T00:44:18;6.90;99.90
52889;DHT22;41413;52.770;6.892;2023-01-09T00:46:50;6.90;99.90
52889;DHT22;41413;52.770;6.892;2023-01-09T00:49:19;6.90;99.90
52889;DHT22;41413;52.770;6.892;2023-01-09T00:51:46;6.90;99.90
52889;DHT22;41413;52.770;6.892;2023-01-09T00:54:16;6.90;99.90
52889;DHT22;41413;52.770;6.892;2023-01-09T00:56:43;6.90;99.90
52889;DHT22;41413;52.770;6.892;2023-01-09T00:59:11;6.90;99.90
52889;DHT22;41413;52.770;6.892;2023-01-09T01:01:37;6.90;99.90
52889;DHT22;41413;52.770;6.892;2023-01-09T01:04:04;6.90;99.90
52889;DHT22;41413;52.770;6.892;2023-01-09T01:06:51;7.00;99.90
52889;DHT22;41413;52.770;6.892;2023-01-09T01:09:36;6.90;99.90
52889;DHT22;41413;52.770;6.892;2023-01-09T01:12:03;7.00;99.90
52889;DHT22;41413;52.770;6.892;2023-01-09T01:14:36;7.00;99.90
52889;DHT22;41413;52.770;6.892;2023-01-09T01:17:04;6.90;99.90
52889;DHT22;41413;52.770;6.892;2023-01-09T01:19:35;6.90;99.90
52889;DHT22;41413;52.770;6.892;2023-01-09T01:22:02;6.90;99.90
52889;DHT22;41413;52.770;6.892;2023-01-09T01:24:29;6.90;99.90
52889;DHT22;41413;52.770;6.892;2023-01-09T01:26:55;6.90;99.90
52889;DHT22;41413;52.770;6.892;2023-01-09T01:29:22;7.00;99.90
52889;DHT22;41413;52.770;6.892;2023-01-09T01:31:50;6.90;99.90
52889;DHT22;41413;52.770;6.892;2023-01-09T01:34:17;6.90;99.90
52889;DHT22;41413;52.770;6.892;2023-01-09T01:36:43;6.90;99.90
52889;DHT22;41413;52.770;6.892;2023-01-09T01:39:10;6.90;99.90
52889;DHT22;41413;52.770;6.892;2023-01-09T01:41:37;6.90;99.90
52889;DHT22;41413;52.770;6.892;2023-01-09T01:44:53;6.90;99.90
52889;DHT22;41413;52.770;6.892;2023-01-09T01:46:53;6.90;99.90
52889;DHT22;41413;52.770;6.892;2023-01-09T01:49:20;6.90;99.90
52889;DHT22;41413;52.770;6.892;2023-01-09T01:51:50;6.90;99.90
52889;DHT22;41413;52.770;6.892;2023-01-09T01:54:21;6.90;99.90
52889;DHT22;41413;52.770;6.892;2023-01-09T01:56:52;6.90;99.90
52889;DHT22;41413;52.770;6.892;2023-01-09T01:59:38;6.90;99.90
52889;DHT22;41413;52.770;6.892;2023-01-09T02:02:06;6.90;99.90
52889;DHT22;41413;52.770;6.892;2023-01-09T02:04:35;6.90;99.90
52889;DHT22;41413;52.770;6.892;2023-01-09T02:07:05;6.90;99.90
52889;DHT22;41413;52.770;6.892;2023-01-09T02:09:33;6.90;99.90
52889;DHT22;41413;52.770;6.892;2023-01-09T02:12:00;6.80;99.90
52889;DHT22;41413;52.770;6.892;2023-01-09T02:14:28;6.80;99.90
52889;DHT22;41413;52.770;6.892;2023-01-09T02:20:15;6.80;99.90
52889;DHT22;41413;52.770;6.892;2023-01-09T02:22:59;6.80;99.90
52889;DHT22;41413;52.770;6.892;2023-01-09T02:36:35;6.60;99.90
52889;DHT22;41413;52.770;6.892;2023-01-09T02:44:25;6.60;99.90
52889;DHT22;41413;52.770;6.892;2023-01-09T02:49:53;6.60;99.90
52889;DHT22;41413;52.770;6.892;2023-01-09T03:07:31;6.40;99.90
52889;DHT22;41413;52.770;6.892;2023-01-09T03:10:07;6.30;99.90
52889;DHT22;41413;52.770;6.892;2023-01-09T03:12:36;6.30;99.90
52889;DHT22;41413;52.770;6.892;2023-01-09T03:15:04;6.30;99.90
52889;DHT22;41413;52.770;6.892;2023-01-09T03:17:37;6.20;99.90
52889;DHT22;41413;52.770;6.892;2023-01-09T03:20:08;6.20;99.90
52889;DHT22;41413;52.770;6.892;2023-01-09T03:22:35;6.20;99.90
52889;DHT22;41413;52.770;6.892;2023-01-09T03:25:04;6.20;99.90
52889;DHT22;41413;52.770;6.892;2023-01-09T03:27:31;6.10;99.90
52889;DHT22;41413;52.770;6.892;2023-01-09T03:29:58;6.10;99.90
52889;DHT22;41413;52.770;6.892;2023-01-09T03:32:25;6.10;99.90
52889;DHT22;41413;52.770;6.892;2023-01-09T03:34:53;6.10;99.90
52889;DHT22;41413;52.770;6.892;2023-01-09T03:37:19;6.00;99.90
52889;DHT22;41413;52.770;6.892;2023-01-09T03:39:46;5.90;99.90
52889;DHT22;41413;52.770;6.892;2023-01-09T03:42:14;5.80;99.90
52889;DHT22;41413;52.770;6.892;2023-01-09T03:44:40;5.80;99.90
52889;DHT22;41413;52.770;6.892;2023-01-09T03:47:07;5.80;99.90
52889;DHT22;41413;52.770;6.892;2023-01-09T03:49:34;5.70;99.90
52889;DHT22;41413;52.770;6.892;2023-01-09T03:52:01;5.70;99.90
52889;DHT22;41413;52.770;6.892;2023-01-09T03:54:27;5.60;99.90
52889;DHT22;41413;52.770;6.892;2023-01-09T03:56:54;5.60;99.90
52889;DHT22;41413;52.770;6.892;2023-01-09T03:59:21;5.50;99.90
52889;DHT22;41413;52.770;6.892;2023-01-09T04:01:47;5.50;99.90
52889;DHT22;41413;52.770;6.892;2023-01-09T04:04:14;5.50;99.90
52889;DHT22;41413;52.770;6.892;2023-01-09T04:06:41;5.50;99.90
52889;DHT22;41413;52.770;6.892;2023-01-09T04:09:08;5.50;99.90
52889;DHT22;41413;52.770;6.892;2023-01-09T04:11:34;5.50;99.90
52889;DHT22;41413;52.770;6.892;2023-01-09T04:14:01;5.40;99.90
52889;DHT22;41413;52.770;6.892;2023-01-09T04:16:28;5.50;99.90
52889;DHT22;41413;52.770;6.892;2023-01-09T04:18:55;5.40;99.90
52889;DHT22;41413;52.770;6.892;2023-01-09T04:21:21;5.40;99.90
52889;DHT22;41413;52.770;6.892;2023-01-09T04:23:48;5.40;99.90
52889;DHT22;41413;52.770;6.892;2023-01-09T04:26:15;5.40;99.90
52889;DHT22;41413;52.770;6.892;2023-01-09T04:28:41;5.30;99.90
52889;DHT22;41413;52.770;6.892;2023-01-09T04:31:08;5.40;99.90
52889;DHT22;41413;52.770;6.892;2023-01-09T04:33:35;5.30;99.90
52889;DHT22;41413;52.770;6.892;2023-01-09T04:36:02;5.30;99.90
52889;DHT22;41413;52.770;6.892;2023-01-09T04:38:29;5.30;99.90
52889;DHT22;41413;52.770;6.892;2023-01-09T04:40:55;5.30;99.90
52889;DHT22;41413;52.770;6.892;2023-01-09T04:43:22;5.20;99.90
52889;DHT22;41413;52.770;6.892;2023-01-09T04:45:49;5.20;99.90
52889;DHT22;41413;52.770;6.892;2023-01-09T04:48:16;5.20;99.90
52889;DHT22;41413;52.770;6.892;2023-01-09T04:50:42;5.20;99.90
52889;DHT22;41413;52.770;6.892;2023-01-09T04:53:09;5.20;99.90
52889;DHT22;41413;52.770;6.892;2023-01-09T04:55:36;5.10;99.90
52889;DHT22;41413;52.770;6.892;2023-01-09T04:58:02;5.20;99.90
52889;DHT22;41413;52.770;6.892;2023-01-09T05:00:29;5.10;99.90
52889;DHT22;41413;52.770;6.892;2023-01-09T05:02:56;5.20;99.90
52889;DHT22;41413;52.770;6.892;2023-01-09T05:05:23;5.10;99.90
52889;DHT22;41413;52.770;6.892;2023-01-09T05:07:50;5.20;99.90
52889;DHT22;41413;52.770;6.892;2023-01-09T05:10:16;5.20;99.90
52889;DHT22;41413;52.770;6.892;2023-01-09T05:12:43;5.20;99.90
52889;DHT22;41413;52.770;6.892;2023-01-09T05:15:10;5.20;99.90
52889;DHT22;41413;52.770;6.892;2023-01-09T05:17:37;5.10;99.90
52889;DHT22;41413;52.770;6.892;2023-01-09T05:20:04;5.10;99.90
52889;DHT22;41413;52.770;6.892;2023-01-09T05:22:31;5.10;99.90
52889;DHT22;41413;52.770;6.892;2023-01-09T05:24:58;5.10;99.90
52889;DHT22;41413;52.770;6.892;2023-01-09T05:27:26;5.10;99.90
52889;DHT22;41413;52.770;6.892;2023-01-09T05:29:53;5.10;99.90
52889;DHT22;41413;52.770;6.892;2023-01-09T05:32:19;5.10;99.90
52889;DHT22;41413;52.770;6.892;2023-01-09T05:34:46;5.10;99.90
52889;DHT22;41413;52.770;6.892;2023-01-09T05:37:13;5.10;99.90
52889;DHT22;41413;52.770;6.892;2023-01-09T05:39:39;5.10;99.90
52889;DHT22;41413;52.770;6.892;2023-01-09T05:42:06;5.00;99.90
52889;DHT22;41413;52.770;6.892;2023-01-09T05:44:33;5.00;99.90
52889;DHT22;41413;52.770;6.892;2023-01-09T05:46:59;5.00;99.90
52889;DHT22;41413;52.770;6.892;2023-01-09T05:49:28;5.00;99.90
52889;DHT22;41413;52.770;6.892;2023-01-09T05:51:55;5.00;99.90
52889;DHT22;41413;52.770;6.892;2023-01-09T05:54:22;5.00;99.90
52889;DHT22;41413;52.770;6.892;2023-01-09T05:56:49;5.00;99.90
52889;DHT22;41413;52.770;6.892;2023-01-09T05:59:15;4.90;99.90
52889;DHT22;41413;52.770;6.892;2023-01-09T06:01:42;4.90;99.90
52889;DHT22;41413;52.770;6.892;2023-01-09T06:04:09;4.90;99.90
52889;DHT22;41413;52.770;6.892;2023-01-09T06:06:35;4.90;99.90
52889;DHT22;41413;52.770;6.892;2023-01-09T06:09:03;4.90;99.90
52889;DHT22;41413;52.770;6.892;2023-01-09T06:11:30;4.90;99.90
52889;DHT22;41413;52.770;6.892;2023-01-09T06:13:56;4.90;99.90
52889;DHT22;41413;52.770;6.892;2023-01-09T06:16:23;5.00;99.90
52889;DHT22;41413;52.770;6.892;2023-01-09T06:18:50;5.00;99.90
52889;DHT22;41413;52.770;6.892;2023-01-09T06:21:17;5.00;99.90
52889;DHT22;41413;52.770;6.892;2023-01-09T06:23:44;5.10;99.90
52889;DHT22;41413;52.770;6.892;2023-01-09T06:26:10;5.20;99.90
52889;DHT22;41413;52.770;6.892;2023-01-09T06:28:37;5.10;99.90
52889;DHT22;41413;52.770;6.892;2023-01-09T06:31:04;5.20;99.90
52889;DHT22;41413;52.770;6.892;2023-01-09T06:33:31;5.20;99.90
52889;DHT22;41413;52.770;6.892;2023-01-09T06:35:58;5.20;99.90
52889;DHT22;41413;52.770;6.892;2023-01-09T06:38:24;5.10;99.90
52889;DHT22;41413;52.770;6.892;2023-01-09T06:40:51;5.20;99.90
52889;DHT22;41413;52.770;6.892;2023-01-09T06:43:17;5.20;99.90
52889;DHT22;41413;52.770;6.892;2023-01-09T06:45:44;5.10;99.90
52889;DHT22;41413;52.770;6.892;2023-01-09T06:48:11;5.10;99.90
52889;DHT22;41413;52.770;6.892;2023-01-09T06:50:38;5.00;99.90
52889;DHT22;41413;52.770;6.892;2023-01-09T06:53:05;5.00;99.90
52889;DHT22;41413;52.770;6.892;2023-01-09T06:55:31;5.00;99.90
52889;DHT22;41413;52.770;6.892;2023-01-09T06:57:58;4.90;99.90
52889;DHT22;41413;52.770;6.892;2023-01-09T07:00:25;4.90;99.90
52889;DHT22;41413;52.770;6.892;2023-01-09T07:02:52;4.90;99.90
52889;DHT22;41413;52.770;6.892;2023-01-09T07:05:19;4.80;99.90
52889;DHT22;41413;52.770;6.892;2023-01-09T07:07:46;4.80;99.90
52889;DHT22;41413;52.770;6.892;2023-01-09T07:10:13;4.70;99.90
52889;DHT22;41413;52.770;6.892;2023-01-09T07:12:40;4.70;99.90
52889;DHT22;41413;52.770;6.892;2023-01-09T07:15:07;4.70;99.90
52889;DHT22;41413;52.770;6.892;2023-01-09T07:17:34;5.30;99.90
52889;DHT22;41413;52.770;6.892;2023-01-09T07:20:00;4.70;99.90
52889;DHT22;41413;52.770;6.892;2023-01-09T07:22:27;4.80;99.90
52889;DHT22;41413;52.770;6.892;2023-01-09T07:24:54;4.70;99.90
52889;DHT22;41413;52.770;6.892;2023-01-09T07:27:21;4.80;99.90
52889;DHT22;41413;52.770;6.892;2023-01-09T07:29:47;4.70;99.90
52889;DHT22;41413;52.770;6.892;2023-01-09T07:32:15;4.70;99.90
52889;DHT22;41413;52.770;6.892;2023-01-09T07:34:42;4.80;99.90
52889;DHT22;41413;52.770;6.892;2023-01-09T07:37:09;4.80;99.90
52889;DHT22;41413;52.770;6.892;2023-01-09T07:39:35;4.90;99.90
52889;DHT22;41413;52.770;6.892;2023-01-09T07:42:02;4.90;99.90
52889;DHT22;41413;52.770;6.892;2023-01-09T07:44:29;5.00;99.90
52889;DHT22;41413;52.770;6.892;2023-01-09T07:46:55;5.00;99.90
52889;DHT22;41413;52.770;6.892;2023-01-09T07:49:22;5.00;99.90
52889;DHT22;41413;52.770;6.892;2023-01-09T07:51:53;5.00;99.90
52889;DHT22;41413;52.770;6.892;2023-01-09T07:54:20;5.00;99.90
52889;DHT22;41413;52.770;6.892;2023-01-09T07:56:46;5.10;99.90
52889;DHT22;41413;52.770;6.892;2023-01-09T07:59:13;5.10;99.90
52889;DHT22;41413;52.770;6.892;2023-01-09T08:01:40;5.10;99.90
52889;DHT22;41413;52.770;6.892;2023-01-09T08:04:07;5.10;99.90
52889;DHT22;41413;52.770;6.892;2023-01-09T08:06:33;5.20;99.90
52889;DHT22;41413;52.770;6.892;2023-01-09T08:09:00;5.20;99.90
52889;DHT22;41413;52.770;6.892;2023-01-09T08:11:27;5.20;99.90
52889;DHT22;41413;52.770;6.892;2023-01-09T08:13:54;5.30;99.90
52889;DHT22;41413;52.770;6.892;2023-01-09T08:16:20;5.30;99.90
52889;DHT22;41413;52.770;6.892;2023-01-09T08:18:47;5.30;99.90
52889;DHT22;41413;52.770;6.892;2023-01-09T08:21:14;5.30;99.90
52889;DHT22;41413;52.770;6.892;2023-01-09T08:23:41;5.30;99.90
52889;DHT22;41413;52.770;6.892;2023-01-09T08:26:08;5.40;99.90
52889;DHT22;41413;52.770;6.892;2023-01-09T08:28:34;5.40;99.90
52889;DHT22;41413;52.770;6.892;2023-01-09T08:31:01;5.40;99.90
52889;DHT22;41413;52.770;6.892;2023-01-09T08:33:28;5.40;99.90
52889;DHT22;41413;52.770;6.892;2023-01-09T08:35:55;5.50;99.90
52889;DHT22;41413;52.770;6.892;2023-01-09T08:38:22;5.50;99.90
52889;DHT22;41413;52.770;6.892;2023-01-09T08:40:49;5.50;99.90
52889;DHT22;41413;52.770;6.892;2023-01-09T08:43:15;5.60;99.90
52889;DHT22;41413;52.770;6.892;2023-01-09T08:46:01;5.50;99.90
52889;DHT22;41413;52.770;6.892;2023-01-09T08:48:46;5.50;99.90
52889;DHT22;41413;52.770;6.892;2023-01-09T08:51:13;5.60;99.90
52889;DHT22;41413;52.770;6.892;2023-01-09T08:53:40;5.60;99.90
52889;DHT22;41413;52.770;6.892;2023-01-09T08:56:07;5.60;99.90
52889;DHT22;41413;52.770;6.892;2023-01-09T08:58:34;5.60;99.90
52889;DHT22;41413;52.770;6.892;2023-01-09T09:01:04;5.70;99.90
52889;DHT22;41413;52.770;6.892;2023-01-09T09:03:31;5.70;99.90
52889;DHT22;41413;52.770;6.892;2023-01-09T09:05:58;5.70;99.90
52889;DHT22;41413;52.770;6.892;2023-01-09T09:08:24;5.80;99.90
52889;DHT22;41413;52.770;6.892;2023-01-09T09:10:51;5.80;99.90
52889;DHT22;41413;52.770;6.892;2023-01-09T09:13:18;5.80;99.90
52889;DHT22;41413;52.770;6.892;2023-01-09T09:15:44;6.90;99.90
52889;DHT22;41413;52.770;6.892;2023-01-09T09:18:11;5.80;99.90
52889;DHT22;41413;52.770;6.892;2023-01-09T09:20:38;5.80;99.90
52889;DHT22;41413;52.770;6.892;2023-01-09T09:23:05;5.80;99.90
52889;DHT22;41413;52.770;6.892;2023-01-09T09:25:34;5.90;99.90
52889;DHT22;41413;52.770;6.892;2023-01-09T09:28:04;5.90;99.90
52889;DHT22;41413;52.770;6.892;2023-01-09T09:30:30;6.00;99.90
52889;DHT22;41413;52.770;6.892;2023-01-09T09:32:58;6.00;99.90
52889;DHT22;41413;52.770;6.892;2023-01-09T09:35:24;6.00;99.90
52889;DHT22;41413;52.770;6.892;2023-01-09T09:37:58;6.00;99.90
52889;DHT22;41413;52.770;6.892;2023-01-09T09:40:42;6.10;99.90
52889;DHT22;41413;52.770;6.892;2023-01-09T09:46:43;6.10;99.90
52889;DHT22;41413;52.770;6.892;2023-01-09T09:49:17;6.20;99.90
52889;DHT22;41413;52.770;6.892;2023-01-09T09:54:43;6.20;99.90
52889;DHT22;41413;52.770;6.892;2023-01-09T09:57:17;6.20;99.90
52889;DHT22;41413;52.770;6.892;2023-01-09T09:59:46;6.30;99.90
52889;DHT22;41413;52.770;6.892;2023-01-09T10:04:55;6.30;99.90
52889;DHT22;41413;52.770;6.892;2023-01-09T10:07:29;6.30;99.90
52889;DHT22;41413;52.770;6.892;2023-01-09T10:10:00;6.40;99.90
52889;DHT22;41413;52.770;6.892;2023-01-09T10:12:29;6.40;99.90
52889;DHT22;41413;52.770;6.892;2023-01-09T10:14:58;6.40;99.90
52889;DHT22;41413;52.770;6.892;2023-01-09T10:20:43;6.30;99.90
52889;DHT22;41413;52.770;6.892;2023-01-09T10:26:11;6.30;99.90
52889;DHT22;41413;52.770;6.892;2023-01-09T10:29:02;6.30;99.90
52889;DHT22;41413;52.770;6.892;2023-01-09T10:37:04;6.20;99.90
52889;DHT22;41413;52.770;6.892;2023-01-09T10:39:51;6.30;99.90
52889;DHT22;41413;52.770;6.892;2023-01-09T10:42:33;6.30;99.90
52889;DHT22;41413;52.770;6.892;2023-01-09T10:47:34;6.30;99.90
52889;DHT22;41413;52.770;6.892;2023-01-09T10:50:20;6.30;99.90
52889;DHT22;41413;52.770;6.892;2023-01-09T10:52:53;6.30;99.90
52889;DHT22;41413;52.770;6.892;2023-01-09T10:55:37;6.40;99.90
52889;DHT22;41413;52.770;6.892;2023-01-09T10:58:13;6.40;99.90
52889;DHT22;41413;52.770;6.892;2023-01-09T11:00:40;6.40;99.90
52889;DHT22;41413;52.770;6.892;2023-01-09T11:03:15;6.40;99.90
52889;DHT22;41413;52.770;6.892;2023-01-09T11:05:43;6.40;99.90
52889;DHT22;41413;52.770;6.892;2023-01-09T11:08:31;6.40;99.90
52889;DHT22;41413;52.770;6.892;2023-01-09T11:11:02;6.40;99.90
52889;DHT22;41413;52.770;6.892;2023-01-09T11:13:32;6.40;99.90
52889;DHT22;41413;52.770;6.892;2023-01-09T11:18:53;6.40;99.90
52889;DHT22;41413;52.770;6.892;2023-01-09T11:23:54;6.40;99.90
52889;DHT22;41413;52.770;6.892;2023-01-09T11:26:25;6.40;99.90
52889;DHT22;41413;52.770;6.892;2023-01-09T11:29:08;6.40;99.90
52889;DHT22;41413;52.770;6.892;2023-01-09T11:31:36;6.40;99.90
52889;DHT22;41413;52.770;6.892;2023-01-09T11:34:03;6.30;99.90
52889;DHT22;41413;52.770;6.892;2023-01-09T11:36:30;6.30;99.90
52889;DHT22;41413;52.770;6.892;2023-01-09T11:38:59;6.30;99.90
52889;DHT22;41413;52.770;6.892;2023-01-09T11:41:32;6.30;99.90
52889;DHT22;41413;52.770;6.892;2023-01-09T11:44:02;6.30;99.90
52889;DHT22;41413;52.770;6.892;2023-01-09T11:46:39;6.30;99.90
52889;DHT22;41413;52.770;6.892;2023-01-09T11:51:41;6.30;99.90
52889;DHT22;41413;52.770;6.892;2023-01-09T11:54:29;6.30;99.90
52889;DHT22;41413;52.770;6.892;2023-01-09T11:56:57;6.30;99.90
52889;DHT22;41413;52.770;6.892;2023-01-09T11:59:26;6.30;99.90
52889;DHT22;41413;52.770;6.892;2023-01-09T12:04:58;6.30;99.90
52889;DHT22;41413;52.770;6.892;2023-01-09T12:16:16;6.50;99.90
52889;DHT22;41413;52.770;6.892;2023-01-09T12:21:47;6.50;99.90
52889;DHT22;41413;52.770;6.892;2023-01-09T12:32:50;6.60;99.90
52889;DHT22;41413;52.770;6.892;2023-01-09T12:35:46;6.70;99.90
52889;DHT22;41413;52.770;6.892;2023-01-09T12:38:30;6.70;99.90
52889;DHT22;41413;52.770;6.892;2023-01-09T12:41:19;6.70;99.90
52889;DHT22;41413;52.770;6.892;2023-01-09T12:49:38;6.90;99.90
52889;DHT22;41413;52.770;6.892;2023-01-09T12:52:12;7.00;99.90
52889;DHT22;41413;52.770;6.892;2023-01-09T12:54:48;7.00;99.90
52889;DHT22;41413;52.770;6.892;2023-01-09T12:57:39;7.00;99.90
52889;DHT22;41413;52.770;6.892;2023-01-09T13:00:24;7.00;99.90
52889;DHT22;41413;52.770;6.892;2023-01-09T13:03:03;7.10;99.90
52889;DHT22;41413;52.770;6.892;2023-01-09T13:05:43;7.10;99.90
52889;DHT22;41413;52.770;6.892;2023-01-09T13:08:38;7.10;99.90
52889;DHT22;41413;52.770;6.892;2023-01-09T13:11:39;7.10;99.90
52889;DHT22;41413;52.770;6.892;2023-01-09T13:16:57;7.20;99.90
52889;DHT22;41413;52.770;6.892;2023-01-09T13:19:35;7.10;99.90
52889;DHT22;41413;52.770;6.892;2023-01-09T13:22:05;7.10;99.90
52889;DHT22;41413;52.770;6.892;2023-01-09T13:24:54;7.20;99.90
52889;DHT22;41413;52.770;6.892;2023-01-09T13:27:25;7.10;99.90
52889;DHT22;41413;52.770;6.892;2023-01-09T13:30:00;7.10;99.90
52889;DHT22;41413;52.770;6.892;2023-01-09T13:35:14;7.20;99.90
52889;DHT22;41413;52.770;6.892;2023-01-09T13:37:42;7.10;99.90
52889;DHT22;41413;52.770;6.892;2023-01-09T13:43:01;7.20;99.90
52889;DHT22;41413;52.770;6.892;2023-01-09T13:45:31;7.20;99.90
52889;DHT22;41413;52.770;6.892;2023-01-09T13:50:45;7.20;99.90
52889;DHT22;41413;52.770;6.892;2023-01-09T13:58:30;7.20;99.90
52889;DHT22;41413;52.770;6.892;2023-01-09T14:06:35;7.40;99.90
52889;DHT22;41413;52.770;6.892;2023-01-09T14:11:38;7.40;99.90
52889;DHT22;41413;52.770;6.892;2023-01-09T14:14:16;7.40;99.90
52889;DHT22;41413;52.770;6.892;2023-01-09T14:16:45;7.40;99.90
52889;DHT22;41413;52.770;6.892;2023-01-09T14:21:43;7.40;99.90
52889;DHT22;41413;52.770;6.892;2023-01-09T14:24:28;7.50;99.90
52889;DHT22;41413;52.770;6.892;2023-01-09T14:26:57;7.50;99.90
52889;DHT22;41413;52.770;6.892;2023-01-09T14:34:57;7.50;99.90
52889;DHT22;41413;52.770;6.892;2023-01-09T14:37:27;7.50;99.90
52889;DHT22;41413;52.770;6.892;2023-01-09T14:39:55;7.50;99.90
52889;DHT22;41413;52.770;6.892;2023-01-09T14:42:27;7.50;99.90
52889;DHT22;41413;52.770;6.892;2023-01-09T14:45:04;7.50;99.90
52889;DHT22;41413;52.770;6.892;2023-01-09T14:50:40;7.50;99.90
52889;DHT22;41413;52.770;6.892;2023-01-09T14:58:23;7.40;99.90
52889;DHT22;41413;52.770;6.892;2023-01-09T15:00:54;7.40;99.90
52889;DHT22;41413;52.770;6.892;2023-01-09T15:03:24;7.40;99.90
52889;DHT22;41413;52.770;6.892;2023-01-09T15:05:52;7.40;99.90
52889;DHT22;41413;52.770;6.892;2023-01-09T15:08:22;7.40;99.90
52889;DHT22;41413;52.770;6.892;2023-01-09T15:10:52;7.40;99.90
52889;DHT22;41413;52.770;6.892;2023-01-09T15:13:30;7.40;99.90
52889;DHT22;41413;52.770;6.892;2023-01-09T15:15:58;7.40;99.90
52889;DHT22;41413;52.770;6.892;2023-01-09T15:18:29;7.40;99.90
52889;DHT22;41413;52.770;6.892;2023-01-09T15:20:59;7.40;99.90
52889;DHT22;41413;52.770;6.892;2023-01-09T15:23:28;7.40;99.90
52889;DHT22;41413;52.770;6.892;2023-01-09T15:26:23;7.40;99.90
52889;DHT22;41413;52.770;6.892;2023-01-09T15:28:52;7.40;99.90
52889;DHT22;41413;52.770;6.892;2023-01-09T15:31:22;7.30;99.90
52889;DHT22;41413;52.770;6.892;2023-01-09T15:33:49;7.30;99.90
52889;DHT22;41413;52.770;6.892;2023-01-09T15:36:26;7.30;99.90
52889;DHT22;41413;52.770;6.892;2023-01-09T15:38:53;7.30;99.90
52889;DHT22;41413;52.770;6.892;2023-01-09T15:41:25;7.30;99.90
52889;DHT22;41413;52.770;6.892;2023-01-09T15:44:20;7.30;99.90
52889;DHT22;41413;52.770;6.892;2023-01-09T15:46:48;7.30;99.90
52889;DHT22;41413;52.770;6.892;2023-01-09T15:49:16;7.30;99.90
52889;DHT22;41413;52.770;6.892;2023-01-09T15:51:44;7.20;99.90
52889;DHT22;41413;52.770;6.892;2023-01-09T15:54:32;7.10;99.90
52889;DHT22;41413;52.770;6.892;2023-01-09T15:59:51;7.10;99.90
52889;DHT22;41413;52.770;6.892;2023-01-09T16:02:19;7.00;99.90
52889;DHT22;41413;52.770;6.892;2023-01-09T16:05:12;7.00;99.90
52889;DHT22;41413;52.770;6.892;2023-01-09T16:07:49;7.10;99.90
52889;DHT22;41413;52.770;6.892;2023-01-09T16:10:22;7.00;99.90
52889;DHT22;41413;52.770;6.892;2023-01-09T16:12:50;7.10;99.90
52889;DHT22;41413;52.770;6.892;2023-01-09T16:15:18;7.10;99.90
52889;DHT22;41413;52.770;6.892;2023-01-09T16:20:31;7.10;99.90
52889;DHT22;41413;52.770;6.892;2023-01-09T16:22:58;7.00;99.90
52889;DHT22;41413;52.770;6.892;2023-01-09T16:25:32;7.00;99.90
52889;DHT22;41413;52.770;6.892;2023-01-09T16:31:02;7.00;99.90
52889;DHT22;41413;52.770;6.892;2023-01-09T16:33:33;7.00;99.90
52889;DHT22;41413;52.770;6.892;2023-01-09T16:36:00;7.00;99.90
52889;DHT22;41413;52.770;6.892;2023-01-09T16:38:28;7.00;99.90
52889;DHT22;41413;52.770;6.892;2023-01-09T16:40:59;7.00;99.90
52889;DHT22;41413;52.770;6.892;2023-01-09T16:43:45;7.00;99.90
52889;DHT22;41413;52.770;6.892;2023-01-09T16:46:13;7.00;99.90
52889;DHT22;41413;52.770;6.892;2023-01-09T16:48:40;7.00;99.90
52889;DHT22;41413;52.770;6.892;2023-01-09T16:51:14;6.90;99.90
52889;DHT22;41413;52.770;6.892;2023-01-09T16:53:41;6.90;99.90
52889;DHT22;41413;52.770;6.892;2023-01-09T16:56:28;6.90;99.90
52889;DHT22;41413;52.770;6.892;2023-01-09T16:58:55;6.80;99.90
52889;DHT22;41413;52.770;6.892;2023-01-09T17:01:22;6.80;99.90
52889;DHT22;41413;52.770;6.892;2023-01-09T17:03:49;6.70;99.90
52889;DHT22;41413;52.770;6.892;2023-01-09T17:06:30;6.70;99.90
52889;DHT22;41413;52.770;6.892;2023-01-09T17:08:57;6.70;99.90
52889;DHT22;41413;52.770;6.892;2023-01-09T17:11:26;6.70;99.90
52889;DHT22;41413;52.770;6.892;2023-01-09T17:14:00;6.70;99.90
52889;DHT22;41413;52.770;6.892;2023-01-09T17:16:27;6.70;99.90
52889;DHT22;41413;52.770;6.892;2023-01-09T17:18:55;6.70;99.90
52889;DHT22;41413;52.770;6.892;2023-01-09T17:21:25;6.70;99.90
52889;DHT22;41413;52.770;6.892;2023-01-09T17:23:59;6.70;99.90
52889;DHT22;41413;52.770;6.892;2023-01-09T17:26:48;6.70;99.90
52889;DHT22;41413;52.770;6.892;2023-01-09T17:29:35;6.70;99.90
52889;DHT22;41413;52.770;6.892;2023-01-09T17:32:02;6.70;99.90
52889;DHT22;41413;52.770;6.892;2023-01-09T17:34:29;6.60;99.90
52889;DHT22;41413;52.770;6.892;2023-01-09T17:36:56;6.60;99.90
52889;DHT22;41413;52.770;6.892;2023-01-09T17:39:22;6.60;99.90
52889;DHT22;41413;52.770;6.892;2023-01-09T17:41:49;6.50;99.90
52889;DHT22;41413;52.770;6.892;2023-01-09T17:44:16;6.50;99.90
52889;DHT22;41413;52.770;6.892;2023-01-09T17:46:43;6.40;99.90
52889;DHT22;41413;52.770;6.892;2023-01-09T17:49:15;6.40;99.90
52889;DHT22;41413;52.770;6.892;2023-01-09T17:51:43;6.40;99.90
52889;DHT22;41413;52.770;6.892;2023-01-09T17:54:10;6.30;99.90
52889;DHT22;41413;52.770;6.892;2023-01-09T17:56:39;6.30;99.90
52889;DHT22;41413;52.770;6.892;2023-01-09T17:59:08;6.30;99.90
52889;DHT22;41413;52.770;6.892;2023-01-09T18:01:35;6.30;99.90
52889;DHT22;41413;52.770;6.892;2023-01-09T18:04:02;6.20;99.90
52889;DHT22;41413;52.770;6.892;2023-01-09T18:06:29;6.20;99.90
52889;DHT22;41413;52.770;6.892;2023-01-09T18:08:56;6.10;99.90
52889;DHT22;41413;52.770;6.892;2023-01-09T18:11:23;6.20;99.90
52889;DHT22;41413;52.770;6.892;2023-01-09T18:13:51;6.10;99.90
52889;DHT22;41413;52.770;6.892;2023-01-09T18:16:24;6.10;99.90
52889;DHT22;41413;52.770;6.892;2023-01-09T18:18:54;6.00;99.90
52889;DHT22;41413;52.770;6.892;2023-01-09T18:21:24;6.00;99.90
52889;DHT22;41413;52.770;6.892;2023-01-09T18:23:52;6.00;99.90
52889;DHT22;41413;52.770;6.892;2023-01-09T18:26:19;6.00;99.90
52889;DHT22;41413;52.770;6.892;2023-01-09T18:28:48;6.00;99.90
52889;DHT22;41413;52.770;6.892;2023-01-09T18:31:16;5.90;99.90